Kimberly, WI (54136)

5:34 AM CDT on September 02, 2015 (GMT -0500)
N9OEQ - Darboy USA | | Change Station
CLOSE
Current Station
Personal Weather Station
Location: Appleton, WI
Elevation: 735 ft
Nearby Weather Stations
Active Advisory: Special Statement

Elev 735 ft 44.25 °N, 88.35 °W | Updated 7 seconds ago

Fog
Fog
72.1 °F
Feels Like 72.1 °F
N
0.0
Wind Variable Wind from East
Gusts 0.0 mph

Today
High -- | Low -- °F
--% Chance of Precip.
Yesterday
High -- | Low -- °F
Precip. -- in
6:17 AM 7:28 PM
Waning Gibbous, 81% visible
Pressure 29.96 in
Visibility 7.0 miles
Clouds Clear
Dew Point 70 °F
Humidity 93%
Rainfall 0.00 in
Snow Depth Not available.
UV 0 out of 12
Pollen 10.20 out of 12
Air Quality Not available.
Flu Activity Not available.
SPECI KATW 021022Z 22005KT 7SM SKC 22/22 A2996 RMK FIRST
Pressure 29.96 in
Visibility 7.0 miles
Clouds Clear
Dew Point 70 °F
Humidity 93%
Rainfall 0.00 in
Snow Depth Not available.
UV 0 out of 12
Pollen 10.20 out of 12
Air Quality Not available.
Flu Activity Not available.
SPECI KATW 021022Z 22005KT 7SM SKC 22/22 A2996 RMK FIRST

10-Day Weather Forecast

×

Almanac

Astronomy

Sep. 02, 2015 Rise Set
Actual Time
Civil Twilight
Nautical Twilight
Astronomical Twilight
Moon
Length of Visible Light
Length of Day
Tomorrow will be .
, % of the Moon is Illuminated

Today's Extremes

State Highs State Lows

Community

WunderPhotos

Upload Photos

1,851,734 photos uploaded!

WunderBlogs® & News

Nearby

Air Quality

  Air Quality AQ Index Pollutant
Not available.

Snow Depth

Station Depth Elevation

Earthquake Activity

City Distance Mag. Time & Date
Minimum magnitude displayed is 2.5.

Coastal Water Temperatures

Place Temperature

Stations

Nearby Weather Stations

Station Location Temp. Windchill Dew Point Humidity Wind Precip. Elev Updated Type
                   
Special Statement
Statement as of 3:50 AM CDT on September 02, 2015

... Areas of dense fog this morning...

Moist air combined with light winds and clear skies has resulted
in areas of dense fog this morning. Visibilities will be less
than a quarter mile in some areas so drive with care and be ready
to slow down when driving in fog. Motorists are urged to exercise
caution during the morning commute... as visibilities can vary
significantly in a very short distance.

The foggy conditions should improve by 9 am.


Kurimski

350 am CDT Wed Sep 2 2015

... Areas of dense fog this morning...

Moist air combined with light winds and clear skies has resulted
in areas of dense fog this morning. Visibilities will be less
than a quarter mile in some areas so drive with care and be ready
to slow down when driving in fog. Motorists are urged to exercise
caution during the morning commute... as visibilities can vary
significantly in a very short distance.

The foggy conditions should improve by 9 am.


Kurimski